Time;durP1;ratioP1;P1;durP2;ratioP2;P2;SDS_P1;SDS_P2;PMS_P1;PMS_P2;Temp;Humidity;BMP_temperature;BMP_pressure;BME280_temperature;BME280_humidity;BME280_pressure;Samples;Min_cycle;Max_cycle;Signal;HPM_P1;HPM_P2
2023/08/23 00:01:59;;;;;;;;;;;19.80;99.90;;;;;;7331564;19;110485;-66
2023/08/23 00:04:27;;;;;;;;;;;19.70;99.90;;;;;;7333940;19;108547;-66
2023/08/23 00:06:54;;;;;;;;;;;19.70;99.90;;;;;;7335664;19;108635;-66
2023/08/23 00:09:21;;;;;;;;;;;19.70;99.90;;;;;;7332568;19;109966;-66
2023/08/23 00:11:48;;;;;;;;;;;19.70;99.90;;;;;;7335137;19;109538;-66
2023/08/23 00:14:15;;;;;;;;;;;19.60;99.90;;;;;;7335509;19;109628;-66
2023/08/23 00:16:42;;;;;;;;;;;19.50;99.90;;;;;;7334404;19;109195;-66
2023/08/23 00:19:09;;;;;;;;;;;19.40;99.90;;;;;;7334950;19;110498;-66
2023/08/23 00:21:36;;;;;;;;;;;19.30;99.90;;;;;;7340039;19;108806;-66
2023/08/23 00:24:04;;;;;;;;;;;19.30;99.90;;;;;;7338438;19;108383;-66
2023/08/23 00:26:31;;;;;;;;;;;19.20;99.90;;;;;;7334890;19;109360;-66
2023/08/23 00:28:58;;;;;;;;;;;19.30;99.90;;;;;;7332696;19;109116;-66
2023/08/23 00:31:25;;;;;;;;;;;19.30;99.90;;;;;;7335125;19;109661;-68
2023/08/23 00:33:52;;;;;;;;;;;19.30;99.90;;;;;;7333376;19;108722;-66
2023/08/23 00:36:19;;;;;;;;;;;19.20;99.90;;;;;;7335133;19;110530;-66
2023/08/23 00:38:47;;;;;;;;;;;19.10;99.90;;;;;;7336621;19;108411;-66
2023/08/23 00:41:14;;;;;;;;;;;19.10;99.90;;;;;;7334684;19;108518;-66
2023/08/23 00:43:41;;;;;;;;;;;19.10;99.90;;;;;;7350664;19;110621;-87
2023/08/23 00:46:12;;;;;;;;;;;19.10;99.90;;;;;;7325530;19;111086;-86
2023/08/23 00:48:39;;;;;;;;;;;19.10;99.90;;;;;;7327396;19;111116;-87
2023/08/23 00:51:08;;;;;;;;;;;19.10;99.90;;;;;;7329451;19;109307;-87
2023/08/23 00:53:36;;;;;;;;;;;19.10;99.90;;;;;;7325124;19;109365;-87
2023/08/23 00:56:03;;;;;;;;;;;19.10;99.90;;;;;;7327706;19;112631;-87
2023/08/23 00:58:31;;;;;;;;;;;19.00;99.90;;;;;;7325970;19;110597;-87
2023/08/23 01:00:59;;;;;;;;;;;19.00;99.90;;;;;;7326265;19;109330;-87
2023/08/23 01:03:26;;;;;;;;;;;18.90;99.90;;;;;;7327142;19;110689;-86
2023/08/23 01:06:09;;;;;;;;;;;18.90;99.90;;;;;;7332353;19;110441;-87
2023/08/23 01:08:39;;;;;;;;;;;18.90;99.90;;;;;;7327491;19;110734;-86
2023/08/23 01:11:17;;;;;;;;;;;18.90;99.90;;;;;;7327584;19;110493;-87
2023/08/23 01:16:32;;;;;;;;;;;18.90;99.90;;;;;;7334104;19;109840;-65
2023/08/23 01:19:00;;;;;;;;;;;18.80;99.90;;;;;;7337635;19;110337;-65
2023/08/23 01:21:32;;;;;;;;;;;18.60;99.90;;;;;;7335301;19;108674;-65
2023/08/23 01:24:07;;;;;;;;;;;18.50;99.90;;;;;;7333389;19;109447;-65
2023/08/23 01:26:40;;;;;;;;;;;18.40;99.90;;;;;;7343548;19;111759;-66
2023/08/23 01:29:07;;;;;;;;;;;18.50;99.90;;;;;;7333360;19;109453;-66
2023/08/23 01:31:42;;;;;;;;;;;18.40;99.90;;;;;;7332386;19;109896;-65
2023/08/23 01:34:13;;;;;;;;;;;18.40;99.90;;;;;;7335510;19;109535;-65
2023/08/23 01:36:41;;;;;;;;;;;18.30;99.90;;;;;;7334569;19;110402;-65
2023/08/23 01:39:10;;;;;;;;;;;18.30;99.90;;;;;;7335283;19;109567;-65
2023/08/23 01:41:38;;;;;;;;;;;18.20;99.90;;;;;;7332950;19;108459;-66
2023/08/23 01:44:05;;;;;;;;;;;18.10;99.90;;;;;;7334825;19;109753;-66
2023/08/23 01:46:34;;;;;;;;;;;18.00;99.90;;;;;;7332125;19;110422;-65
2023/08/23 01:49:01;;;;;;;;;;;17.90;99.90;;;;;;7339252;19;108929;-65
2023/08/23 01:51:32;;;;;;;;;;;17.90;99.90;;;;;;7330854;19;118621;-65
2023/08/23 01:53:59;;;;;;;;;;;17.90;99.90;;;;;;7331189;19;110080;-65
2023/08/23 01:56:26;;;;;;;;;;;17.90;99.90;;;;;;7330049;19;109513;-65
2023/08/23 01:58:53;;;;;;;;;;;17.90;99.90;;;;;;7335362;19;109130;-68
2023/08/23 02:01:21;;;;;;;;;;;17.90;99.90;;;;;;7332819;19;109851;-65
2023/08/23 02:03:48;;;;;;;;;;;17.90;99.90;;;;;;7334687;19;110125;-66
2023/08/23 02:06:15;;;;;;;;;;;17.80;99.90;;;;;;7332228;19;108681;-65
2023/08/23 02:08:42;;;;;;;;;;;17.80;99.90;;;;;;7332898;19;108791;-65
2023/08/23 02:11:09;;;;;;;;;;;17.80;99.90;;;;;;7335768;19;109413;-65
2023/08/23 02:13:36;;;;;;;;;;;17.80;99.90;;;;;;7332863;19;109530;-65
2023/08/23 02:16:03;;;;;;;;;;;17.90;99.90;;;;;;7329311;19;109103;-65
2023/08/23 02:18:31;;;;;;;;;;;17.90;99.90;;;;;;7332561;19;108914;-65
2023/08/23 02:20:58;;;;;;;;;;;17.90;99.90;;;;;;7332944;19;108938;-65
2023/08/23 02:23:25;;;;;;;;;;;17.80;99.90;;;;;;7335504;19;109084;-68
2023/08/23 02:25:52;;;;;;;;;;;17.80;99.90;;;;;;7328671;19;108905;-69
2023/08/23 02:28:20;;;;;;;;;;;17.80;99.90;;;;;;7331422;19;108680;-71
2023/08/23 02:30:47;;;;;;;;;;;17.80;99.90;;;;;;7329751;19;110117;-67
2023/08/23 02:33:14;;;;;;;;;;;17.80;99.90;;;;;;7338196;19;114581;-68
2023/08/23 02:35:46;;;;;;;;;;;17.70;99.90;;;;;;7328099;19;109180;-69
2023/08/23 02:38:14;;;;;;;;;;;17.60;99.90;;;;;;7329886;19;109906;-68
2023/08/23 02:40:42;;;;;;;;;;;17.50;99.90;;;;;;7334326;19;108568;-71
2023/08/23 02:43:09;;;;;;;;;;;17.40;99.90;;;;;;7330818;19;110668;-66
2023/08/23 02:45:40;;;;;;;;;;;17.30;99.90;;;;;;7330871;19;109834;-74
2023/08/23 02:48:09;;;;;;;;;;;17.20;99.90;;;;;;7331292;19;109499;-72
2023/08/23 02:50:36;;;;;;;;;;;17.20;99.90;;;;;;7332008;19;110398;-70
2023/08/23 02:53:03;;;;;;;;;;;17.10;99.90;;;;;;7334848;19;108314;-67
2023/08/23 02:55:33;;;;;;;;;;;17.10;99.90;;;;;;7344136;19;108592;-68
2023/08/23 02:58:00;;;;;;;;;;;17.10;99.90;;;;;;7336760;19;109309;-65
2023/08/23 03:00:28;;;;;;;;;;;17.10;99.90;;;;;;7339302;19;110088;-65
2023/08/23 03:02:55;;;;;;;;;;;17.10;99.90;;;;;;7338775;19;109545;-69
2023/08/23 03:05:23;;;;;;;;;;;17.00;99.90;;;;;;7336776;19;109092;-69
2023/08/23 03:07:50;;;;;;;;;;;16.90;99.90;;;;;;7336190;19;111019;-64
2023/08/23 03:10:17;;;;;;;;;;;16.80;99.90;;;;;;7337959;19;109147;-73
2023/08/23 03:12:44;;;;;;;;;;;16.70;99.90;;;;;;7336012;19;111249;-68
2023/08/23 03:15:11;;;;;;;;;;;16.80;99.90;;;;;;7343328;19;109116;-71
2023/08/23 03:17:38;;;;;;;;;;;16.90;99.90;;;;;;7337119;19;110399;-73
2023/08/23 03:20:05;;;;;;;;;;;16.90;99.90;;;;;;7339513;19;108975;-67
2023/08/23 03:22:33;;;;;;;;;;;16.90;99.90;;;;;;7334476;19;109544;-69
2023/08/23 03:25:00;;;;;;;;;;;16.80;99.90;;;;;;7338676;19;109017;-67
2023/08/23 03:27:27;;;;;;;;;;;16.80;99.90;;;;;;7334034;19;110721;-70
2023/08/23 03:29:54;;;;;;;;;;;16.70;99.90;;;;;;7338082;19;110464;-73
2023/08/23 03:32:21;;;;;;;;;;;16.70;99.90;;;;;;7338023;19;109436;-69
2023/08/23 03:34:49;;;;;;;;;;;16.70;99.90;;;;;;7337542;19;109327;-70
2023/08/23 03:37:16;;;;;;;;;;;16.80;99.90;;;;;;7339989;19;109077;-71
2023/08/23 03:39:44;;;;;;;;;;;16.80;99.90;;;;;;7335184;19;109588;-66
2023/08/23 03:42:11;;;;;;;;;;;16.80;99.90;;;;;;7335069;19;109977;-67
2023/08/23 03:44:38;;;;;;;;;;;16.80;99.90;;;;;;7336820;19;109885;-64
2023/08/23 03:47:05;;;;;;;;;;;16.80;99.90;;;;;;7327500;19;110367;-85
2023/08/23 03:49:33;;;;;;;;;;;16.70;99.90;;;;;;7333216;19;111713;-85
2023/08/23 03:52:00;;;;;;;;;;;16.70;99.90;;;;;;7330186;19;109556;-66
2023/08/23 03:54:28;;;;;;;;;;;16.70;99.90;;;;;;7336758;19;109605;-75
2023/08/23 03:56:55;;;;;;;;;;;16.70;99.90;;;;;;7337165;19;109236;-69
2023/08/23 03:59:22;;;;;;;;;;;16.70;99.90;;;;;;7336789;19;109587;-73
2023/08/23 04:01:49;;;;;;;;;;;16.70;99.90;;;;;;7332162;19;109488;-71
2023/08/23 04:04:17;;;;;;;;;;;16.70;99.90;;;;;;7333495;19;108352;-72
2023/08/23 04:06:44;;;;;;;;;;;16.60;99.90;;;;;;7337038;19;113271;-73
2023/08/23 04:09:13;;;;;;;;;;;16.60;99.90;;;;;;7337450;19;109660;-66
2023/08/23 04:11:41;;;;;;;;;;;16.60;99.90;;;;;;7336794;19;108828;-65
2023/08/23 04:14:08;;;;;;;;;;;16.60;99.90;;;;;;7334785;19;108614;-65
2023/08/23 04:16:35;;;;;;;;;;;16.60;99.90;;;;;;7336167;19;109698;-64
2023/08/23 04:19:02;;;;;;;;;;;16.60;99.90;;;;;;7334256;19;109185;-66
2023/08/23 04:21:29;;;;;;;;;;;16.60;99.90;;;;;;7339695;19;108880;-64
2023/08/23 04:23:56;;;;;;;;;;;16.50;99.90;;;;;;7332961;19;109289;-64
2023/08/23 04:26:23;;;;;;;;;;;16.50;99.90;;;;;;7336485;19;108657;-64
2023/08/23 04:28:50;;;;;;;;;;;16.50;99.90;;;;;;7336079;19;109714;-64
2023/08/23 04:31:18;;;;;;;;;;;16.50;99.90;;;;;;7332279;19;109043;-64
2023/08/23 04:33:47;;;;;;;;;;;16.40;99.90;;;;;;7333939;19;109093;-70
2023/08/23 04:36:14;;;;;;;;;;;16.30;99.90;;;;;;7334614;19;109800;-64
2023/08/23 04:38:42;;;;;;;;;;;16.20;99.90;;;;;;7334732;19;108939;-64
2023/08/23 04:41:09;;;;;;;;;;;16.10;99.90;;;;;;7336532;19;110165;-64
2023/08/23 04:43:36;;;;;;;;;;;16.20;99.90;;;;;;7339359;19;109586;-64
2023/08/23 04:46:04;;;;;;;;;;;16.20;99.90;;;;;;7335759;19;108919;-64
2023/08/23 04:48:31;;;;;;;;;;;16.20;99.90;;;;;;7333088;19;109050;-64
2023/08/23 04:50:59;;;;;;;;;;;16.20;99.90;;;;;;7336538;19;109080;-65
2023/08/23 04:53:26;;;;;;;;;;;16.10;99.90;;;;;;7334987;19;109274;-65
2023/08/23 04:55:57;;;;;;;;;;;16.10;99.90;;;;;;7334609;19;109148;-65
2023/08/23 04:58:29;;;;;;;;;;;16.10;99.90;;;;;;7332360;19;109237;-64
2023/08/23 05:01:06;;;;;;;;;;;16.10;99.90;;;;;;7331516;19;108490;-64
2023/08/23 05:03:34;;;;;;;;;;;16.00;99.90;;;;;;7332738;19;109612;-64
2023/08/23 05:06:02;;;;;;;;;;;16.00;99.90;;;;;;7338077;19;109519;-65
2023/08/23 05:08:29;;;;;;;;;;;15.90;99.90;;;;;;7333423;19;109972;-65
2023/08/23 05:10:56;;;;;;;;;;;15.90;99.90;;;;;;7332905;19;109006;-65
2023/08/23 05:13:23;;;;;;;;;;;16.00;99.90;;;;;;7333110;19;109599;-64
2023/08/23 05:15:54;;;;;;;;;;;16.00;99.90;;;;;;7327543;19;110987;-65
2023/08/23 05:18:24;;;;;;;;;;;16.10;99.90;;;;;;7331878;19;108459;-64
2023/08/23 05:20:55;;;;;;;;;;;16.10;99.90;;;;;;7330861;19;110637;-65
2023/08/23 05:23:22;;;;;;;;;;;16.10;99.90;;;;;;7333227;19;109312;-64
2023/08/23 05:25:51;;;;;;;;;;;16.10;99.90;;;;;;7337386;19;114224;-64
2023/08/23 05:28:20;;;;;;;;;;;16.20;99.90;;;;;;7334454;19;110125;-64
2023/08/23 05:30:49;;;;;;;;;;;16.20;99.90;;;;;;7329533;19;108832;-64
2023/08/23 05:33:16;;;;;;;;;;;16.30;99.90;;;;;;7331834;19;108806;-64
2023/08/23 05:35:44;;;;;;;;;;;16.40;99.90;;;;;;7332295;19;110217;-64
2023/08/23 05:38:11;;;;;;;;;;;16.40;99.90;;;;;;7331913;19;109539;-65
2023/08/23 05:40:38;;;;;;;;;;;16.40;99.90;;;;;;7334408;19;108913;-64
2023/08/23 05:43:06;;;;;;;;;;;16.50;99.90;;;;;;7333452;19;110522;-64
2023/08/23 05:45:33;;;;;;;;;;;16.60;99.90;;;;;;7330935;19;108780;-64
2023/08/23 05:48:01;;;;;;;;;;;16.60;99.90;;;;;;7338011;19;110312;-64
2023/08/23 05:50:28;;;;;;;;;;;16.70;99.90;;;;;;7331081;19;108839;-64
2023/08/23 05:52:58;;;;;;;;;;;16.80;99.90;;;;;;7333240;19;110689;-65
2023/08/23 05:55:26;;;;;;;;;;;16.80;99.90;;;;;;7333425;19;110240;-63
2023/08/23 05:57:53;;;;;;;;;;;17.00;99.90;;;;;;7329895;19;108939;-63
2023/08/23 06:00:21;;;;;;;;;;;17.10;99.90;;;;;;7329577;19;111720;-63
2023/08/23 06:02:48;;;;;;;;;;;17.10;99.90;;;;;;7331383;19;109128;-63
2023/08/23 06:05:15;;;;;;;;;;;17.10;99.90;;;;;;7331518;19;109165;-63
2023/08/23 06:07:42;;;;;;;;;;;17.20;99.90;;;;;;7330864;19;110078;-63
2023/08/23 06:10:10;;;;;;;;;;;17.30;99.90;;;;;;7338180;19;110003;-63
2023/08/23 06:12:37;;;;;;;;;;;17.30;99.90;;;;;;7332157;19;108704;-63
2023/08/23 06:15:05;;;;;;;;;;;17.30;99.90;;;;;;7331708;19;111157;-63
2023/08/23 06:17:32;;;;;;;;;;;17.40;99.90;;;;;;7333668;19;109151;-63
2023/08/23 06:19:59;;;;;;;;;;;17.50;99.90;;;;;;7332897;19;108869;-63
2023/08/23 06:22:27;;;;;;;;;;;17.60;99.90;;;;;;7330172;19;109065;-63
2023/08/23 06:24:55;;;;;;;;;;;17.70;99.90;;;;;;7333320;19;110576;-63
2023/08/23 06:27:22;;;;;;;;;;;17.90;99.90;;;;;;7334597;19;109338;-63
2023/08/23 06:29:49;;;;;;;;;;;18.00;99.90;;;;;;7341505;19;110658;-63
2023/08/23 06:32:16;;;;;;;;;;;18.10;99.90;;;;;;7342059;19;109355;-63
2023/08/23 06:34:43;;;;;;;;;;;18.30;99.90;;;;;;7339477;19;109086;-63
2023/08/23 06:37:11;;;;;;;;;;;18.30;99.90;;;;;;7339934;19;110405;-63
2023/08/23 06:39:38;;;;;;;;;;;18.50;99.90;;;;;;7339590;19;108787;-63
2023/08/23 06:42:05;;;;;;;;;;;18.60;99.90;;;;;;7339292;19;110191;-63
2023/08/23 06:44:32;;;;;;;;;;;18.70;99.90;;;;;;7336320;19;110067;-63
2023/08/23 06:47:00;;;;;;;;;;;18.80;99.90;;;;;;7337423;19;110214;-63
2023/08/23 06:49:27;;;;;;;;;;;18.90;99.90;;;;;;7337627;19;110056;-64
2023/08/23 06:51:54;;;;;;;;;;;19.10;99.90;;;;;;7338947;19;108834;-63
2023/08/23 06:54:21;;;;;;;;;;;19.10;99.90;;;;;;7345569;19;108731;-63
2023/08/23 06:56:48;;;;;;;;;;;19.30;99.90;;;;;;7339138;19;109944;-63
2023/08/23 06:59:15;;;;;;;;;;;19.40;99.90;;;;;;7337855;19;109098;-63
2023/08/23 07:01:42;;;;;;;;;;;19.50;99.90;;;;;;7336607;19;110044;-63
2023/08/23 07:04:10;;;;;;;;;;;19.60;99.90;;;;;;7340202;19;109774;-63
2023/08/23 07:06:39;;;;;;;;;;;19.80;99.90;;;;;;7337924;19;114062;-63
2023/08/23 07:09:07;;;;;;;;;;;19.90;99.90;;;;;;7334925;19;110254;-63
2023/08/23 07:11:34;;;;;;;;;;;20.00;99.90;;;;;;7338051;19;109241;-63
2023/08/23 07:14:01;;;;;;;;;;;20.20;99.90;;;;;;7330719;19;108914;-62
2023/08/23 07:16:28;;;;;;;;;;;20.30;99.90;;;;;;7340981;19;109081;-62
2023/08/23 07:18:56;;;;;;;;;;;20.40;99.90;;;;;;7339725;19;108331;-62
2023/08/23 07:21:23;;;;;;;;;;;20.60;99.90;;;;;;7339236;19;109097;-62
2023/08/23 07:23:50;;;;;;;;;;;20.60;99.90;;;;;;7340187;19;108863;-62
2023/08/23 07:26:17;;;;;;;;;;;20.70;99.90;;;;;;7338273;19;108744;-62
2023/08/23 07:28:44;;;;;;;;;;;20.80;99.90;;;;;;7337778;19;109279;-62
2023/08/23 07:31:11;;;;;;;;;;;20.90;99.90;;;;;;7338107;19;108446;-62
2023/08/23 07:33:42;;;;;;;;;;;21.00;99.90;;;;;;7339858;19;109050;-62
2023/08/23 07:36:09;;;;;;;;;;;21.10;99.90;;;;;;7339993;19;111654;-62
2023/08/23 07:38:36;;;;;;;;;;;21.20;99.90;;;;;;7336506;19;108431;-62
2023/08/23 07:41:03;;;;;;;;;;;21.30;99.90;;;;;;7339017;19;110273;-62
2023/08/23 07:43:31;;;;;;;;;;;21.50;99.90;;;;;;7335947;19;109398;-62
2023/08/23 07:45:59;;;;;;;;;;;21.60;99.90;;;;;;7338015;19;108964;-62
2023/08/23 07:48:27;;;;;;;;;;;21.70;99.90;;;;;;7337461;19;109167;-62
2023/08/23 07:51:00;;;;;;;;;;;21.80;99.90;;;;;;7337833;19;108856;-61
2023/08/23 07:53:28;;;;;;;;;;;21.90;99.90;;;;;;7336709;19;109692;-61
2023/08/23 07:55:55;;;;;;;;;;;22.00;99.90;;;;;;7338210;19;109125;-62
2023/08/23 07:58:22;;;;;;;;;;;22.00;99.90;;;;;;7342723;19;109436;-62
2023/08/23 08:00:50;;;;;;;;;;;22.10;99.90;;;;;;7334481;19;110924;-62
2023/08/23 08:03:17;;;;;;;;;;;22.20;99.90;;;;;;7335371;19;109004;-61
2023/08/23 08:05:45;;;;;;;;;;;22.20;99.90;;;;;;7335512;19;109773;-61
2023/08/23 08:08:12;;;;;;;;;;;22.30;99.90;;;;;;7336199;19;110491;-61
2023/08/23 08:10:40;;;;;;;;;;;22.40;99.90;;;;;;7337660;19;108722;-62
2023/08/23 08:13:07;;;;;;;;;;;22.50;99.90;;;;;;7335987;19;108882;-61
2023/08/23 08:15:37;;;;;;;;;;;22.60;99.90;;;;;;7334845;19;110327;-62
2023/08/23 08:18:04;;;;;;;;;;;22.70;99.90;;;;;;7338070;19;109106;-61
2023/08/23 08:20:32;;;;;;;;;;;22.70;99.90;;;;;;7342946;19;108717;-62
2023/08/23 08:22:59;;;;;;;;;;;22.70;99.90;;;;;;7337225;19;108920;-61
2023/08/23 08:25:26;;;;;;;;;;;22.80;99.90;;;;;;7338074;19;109748;-62
2023/08/23 08:27:53;;;;;;;;;;;22.90;99.90;;;;;;7335461;19;109504;-62
2023/08/23 08:30:21;;;;;;;;;;;23.00;99.90;;;;;;7332768;19;109652;-62
2023/08/23 08:32:48;;;;;;;;;;;23.10;99.90;;;;;;7340022;19;109267;-62
2023/08/23 08:35:15;;;;;;;;;;;23.20;99.90;;;;;;7335750;19;109624;-63
2023/08/23 08:37:42;;;;;;;;;;;23.20;99.90;;;;;;7338375;19;108650;-62
2023/08/23 08:40:10;;;;;;;;;;;23.30;99.90;;;;;;7334446;19;108863;-62
2023/08/23 08:42:37;;;;;;;;;;;23.40;99.90;;;;;;7342176;19;111797;-62
2023/08/23 08:45:07;;;;;;;;;;;23.50;99.90;;;;;;7338377;19;109044;-62
2023/08/23 08:47:34;;;;;;;;;;;23.60;99.90;;;;;;7336690;19;109245;-62
2023/08/23 08:50:01;;;;;;;;;;;23.70;99.90;;;;;;7335028;19;108745;-62
2023/08/23 08:52:30;;;;;;;;;;;23.70;99.90;;;;;;7336757;19;110448;-62
2023/08/23 08:54:58;;;;;;;;;;;23.90;99.90;;;;;;7334678;19;108913;-62
2023/08/23 08:57:27;;;;;;;;;;;23.90;99.90;;;;;;7335824;19;109151;-62
2023/08/23 08:59:55;;;;;;;;;;;24.10;99.90;;;;;;7335914;19;109742;-62
2023/08/23 09:02:23;;;;;;;;;;;24.10;99.90;;;;;;7332989;19;109782;-62
2023/08/23 09:04:51;;;;;;;;;;;24.20;99.90;;;;;;7342365;19;108993;-62
2023/08/23 09:07:18;;;;;;;;;;;24.30;99.90;;;;;;7337362;19;109448;-62
2023/08/23 09:09:45;;;;;;;;;;;24.40;99.90;;;;;;7333918;19;109468;-62
2023/08/23 09:12:13;;;;;;;;;;;24.50;99.90;;;;;;7338028;19;109211;-62
2023/08/23 09:14:47;;;;;;;;;;;24.40;99.90;;;;;;7336673;19;109674;-62
2023/08/23 09:17:14;;;;;;;;;;;24.30;99.90;;;;;;7339453;19;108585;-62
2023/08/23 09:19:41;;;;;;;;;;;24.30;99.90;;;;;;7335337;19;108326;-62
2023/08/23 09:22:08;;;;;;;;;;;24.20;99.90;;;;;;7333904;19;110270;-62
2023/08/23 09:24:36;;;;;;;;;;;24.10;99.90;;;;;;7337716;19;109128;-62
2023/08/23 09:27:04;;;;;;;;;;;24.30;99.90;;;;;;7340033;19;108547;-62
2023/08/23 09:29:31;;;;;;;;;;;24.50;99.90;;;;;;7335668;19;108253;-63
2023/08/23 09:31:59;;;;;;;;;;;24.60;99.90;;;;;;7333895;19;111215;-62
2023/08/23 09:34:26;;;;;;;;;;;24.70;99.90;;;;;;7335996;19;109843;-62
2023/08/23 09:37:04;;;;;;;;;;;24.80;99.90;;;;;;7335223;19;109788;-62
2023/08/23 09:39:31;;;;;;;;;;;24.80;99.90;;;;;;7337114;19;108853;-62
2023/08/23 09:42:03;;;;;;;;;;;24.90;99.90;;;;;;7334023;19;110160;-62
2023/08/23 09:44:33;;;;;;;;;;;25.00;99.90;;;;;;7334428;19;109386;-62
2023/08/23 09:47:03;;;;;;;;;;;25.10;99.90;;;;;;7338907;19;109099;-62
2023/08/23 09:49:32;;;;;;;;;;;25.20;99.90;;;;;;7336192;19;109747;-63
2023/08/23 09:52:00;;;;;;;;;;;25.30;99.90;;;;;;7334482;19;109466;-62
2023/08/23 09:54:35;;;;;;;;;;;25.30;99.90;;;;;;7334549;19;109776;-62
2023/08/23 09:57:17;;;;;;;;;;;25.40;99.90;;;;;;7335249;19;109032;-63
2023/08/23 09:59:45;;;;;;;;;;;25.50;99.90;;;;;;7333455;19;109120;-63
2023/08/23 10:02:14;;;;;;;;;;;25.50;99.90;;;;;;7331048;19;109200;-62
2023/08/23 10:04:42;;;;;;;;;;;25.60;99.90;;;;;;7336028;19;108693;-62
2023/08/23 10:07:11;;;;;;;;;;;25.70;99.90;;;;;;7334110;19;109305;-62
2023/08/23 10:09:38;;;;;;;;;;;25.70;99.90;;;;;;7337023;19;110137;-62
2023/08/23 10:12:06;;;;;;;;;;;25.80;99.90;;;;;;7330920;19;109304;-65
2023/08/23 10:14:35;;;;;;;;;;;25.80;99.90;;;;;;7330834;19;110178;-62
2023/08/23 10:17:03;;;;;;;;;;;25.80;99.90;;;;;;7332978;19;109501;-62
2023/08/23 10:19:31;;;;;;;;;;;25.80;99.90;;;;;;7332585;19;108849;-62
2023/08/23 10:21:58;;;;;;;;;;;25.90;99.90;;;;;;7335524;19;110468;-62
2023/08/23 10:24:29;;;;;;;;;;;26.00;99.90;;;;;;7331825;19;109621;-62
2023/08/23 10:26:56;;;;;;;;;;;26.10;99.90;;;;;;7333085;19;109974;-62
2023/08/23 10:29:26;;;;;;;;;;;26.10;99.90;;;;;;7330755;19;109718;-62
2023/08/23 10:31:54;;;;;;;;;;;26.20;99.90;;;;;;7336230;19;111104;-62
2023/08/23 10:34:27;;;;;;;;;;;26.20;99.90;;;;;;7328950;19;110065;-62
2023/08/23 10:36:55;;;;;;;;;;;26.20;99.90;;;;;;7332951;19;109573;-62
2023/08/23 10:39:26;;;;;;;;;;;26.20;99.90;;;;;;7331456;19;110578;-63
2023/08/23 10:41:53;;;;;;;;;;;26.20;99.90;;;;;;7333357;19;109540;-63
2023/08/23 10:44:22;;;;;;;;;;;26.30;99.90;;;;;;7333964;19;108806;-62
2023/08/23 10:46:51;;;;;;;;;;;26.20;99.90;;;;;;7329883;19;110190;-62
2023/08/23 10:49:20;;;;;;;;;;;26.20;99.90;;;;;;7330537;19;109454;-62
2023/08/23 10:51:47;;;;;;;;;;;26.20;99.90;;;;;;7332614;19;108509;-62
2023/08/23 10:54:14;;;;;;;;;;;26.30;99.90;;;;;;7338335;19;108451;-62
2023/08/23 10:56:42;;;;;;;;;;;26.50;99.90;;;;;;7329841;19;109335;-62
2023/08/23 10:59:09;;;;;;;;;;;26.70;99.90;;;;;;7330196;19;111488;-62
2023/08/23 11:01:39;;;;;;;;;;;26.70;99.90;;;;;;7330790;19;109160;-62
2023/08/23 11:04:09;;;;;;;;;;;26.80;99.90;;;;;;7322714;19;109912;-62
2023/08/23 11:06:37;;;;;;;;;;;26.80;99.90;;;;;;7331271;19;108598;-62
2023/08/23 11:09:04;;;;;;;;;;;26.70;99.90;;;;;;7331239;19;110422;-63
2023/08/23 11:11:31;;;;;;;;;;;26.70;99.90;;;;;;7331495;19;108619;-62
2023/08/23 11:13:58;;;;;;;;;;;26.90;99.90;;;;;;7333512;19;109111;-63
2023/08/23 11:16:26;;;;;;;;;;;27.00;99.90;;;;;;7344312;19;110033;-63
2023/08/23 11:18:53;;;;;;;;;;;27.10;99.90;;;;;;7338283;19;111138;-63
2023/08/23 11:21:20;;;;;;;;;;;27.20;99.90;;;;;;7340998;19;110480;-63
2023/08/23 11:23:47;;;;;;;;;;;27.30;99.90;;;;;;7337254;19;108491;-63
2023/08/23 11:26:14;;;;;;;;;;;27.40;99.90;;;;;;7340614;19;111479;-62
2023/08/23 11:28:42;;;;;;;;;;;27.40;99.90;;;;;;7337785;19;112192;-62
2023/08/23 11:31:09;;;;;;;;;;;27.40;99.90;;;;;;7339444;19;110502;-63
2023/08/23 11:33:37;;;;;;;;;;;27.40;99.90;;;;;;7337003;19;109509;-63
2023/08/23 11:36:04;;;;;;;;;;;27.50;99.90;;;;;;7338578;19;109755;-63
2023/08/23 11:38:31;;;;;;;;;;;27.60;99.90;;;;;;7345232;19;111071;-63
2023/08/23 11:40:59;;;;;;;;;;;27.60;99.90;;;;;;7340872;19;109111;-63
2023/08/23 11:43:27;;;;;;;;;;;27.70;99.90;;;;;;7336437;19;109459;-63
2023/08/23 11:45:54;;;;;;;;;;;27.90;99.90;;;;;;7340766;19;108728;-63
2023/08/23 11:48:23;;;;;;;;;;;28.00;99.90;;;;;;7339912;19;110229;-62
2023/08/23 11:50:50;;;;;;;;;;;28.00;99.90;;;;;;7343249;19;108634;-63
2023/08/23 11:53:18;;;;;;;;;;;28.10;99.90;;;;;;7336485;19;108516;-63
2023/08/23 11:55:47;;;;;;;;;;;28.20;99.90;;;;;;7338517;19;109290;-64
2023/08/23 11:58:14;;;;;;;;;;;28.30;99.90;;;;;;7343299;19;108894;-64
2023/08/23 12:00:42;;;;;;;;;;;28.30;99.90;;;;;;7338561;19;110207;-64
2023/08/23 12:03:09;;;;;;;;;;;28.40;99.90;;;;;;7338070;19;109344;-64
2023/08/23 12:05:36;;;;;;;;;;;28.50;99.90;;;;;;7335917;19;108520;-64
2023/08/23 12:08:03;;;;;;;;;;;28.60;99.90;;;;;;7335733;19;109083;-64
2023/08/23 12:10:31;;;;;;;;;;;28.70;99.90;;;;;;7334352;19;109673;-63
2023/08/23 12:12:58;;;;;;;;;;;28.70;99.90;;;;;;7335207;19;108725;-64
2023/08/23 12:15:25;;;;;;;;;;;28.80;99.90;;;;;;7337155;19;109055;-64
2023/08/23 12:17:54;;;;;;;;;;;28.90;99.90;;;;;;7336500;19;109603;-64
2023/08/23 12:20:21;;;;;;;;;;;29.00;99.90;;;;;;7340827;19;109106;-64
2023/08/23 12:22:50;;;;;;;;;;;29.10;99.90;;;;;;7337714;19;109115;-64
2023/08/23 12:25:17;;;;;;;;;;;29.20;99.10;;;;;;7339882;19;108590;-64
2023/08/23 12:27:45;;;;;;;;;;;29.20;99.90;;;;;;7334110;19;109395;-64
2023/08/23 12:30:13;;;;;;;;;;;29.30;99.90;;;;;;7337399;19;108559;-64
2023/08/23 12:32:40;;;;;;;;;;;29.40;99.90;;;;;;7337783;19;108933;-64
2023/08/23 12:35:07;;;;;;;;;;;29.50;99.90;;;;;;7334814;19;112081;-64
2023/08/23 12:37:34;;;;;;;;;;;29.70;99.90;;;;;;7338414;19;110619;-64
2023/08/23 12:40:03;;;;;;;;;;;29.80;99.40;;;;;;7336168;19;109003;-64
2023/08/23 12:42:41;;;;;;;;;;;29.90;99.60;;;;;;7342633;19;109109;-64
2023/08/23 12:45:08;;;;;;;;;;;30.00;98.80;;;;;;7334316;19;109814;-64
2023/08/23 12:47:36;;;;;;;;;;;30.10;98.10;;;;;;7336408;19;110010;-64
2023/08/23 12:50:03;;;;;;;;;;;30.10;97.90;;;;;;7336226;19;108567;-65
2023/08/23 12:52:30;;;;;;;;;;;30.20;96.40;;;;;;7337270;19;108879;-64
2023/08/23 12:54:57;;;;;;;;;;;30.30;97.40;;;;;;7334956;19;109066;-64
2023/08/23 12:57:24;;;;;;;;;;;30.30;97.10;;;;;;7337284;19;109835;-64
2023/08/23 12:59:52;;;;;;;;;;;30.40;97.60;;;;;;7332869;19;110585;-65
2023/08/23 13:02:19;;;;;;;;;;;30.60;95.90;;;;;;7331978;19;112975;-65
2023/08/23 13:04:46;;;;;;;;;;;30.70;96.80;;;;;;7341370;19;108826;-64
2023/08/23 13:07:14;;;;;;;;;;;30.70;96.40;;;;;;7335097;19;109496;-64
2023/08/23 13:09:41;;;;;;;;;;;30.70;95.80;;;;;;7337378;19;108852;-64
2023/08/23 13:12:08;;;;;;;;;;;30.90;96.90;;;;;;7336822;19;108869;-64
2023/08/23 13:14:35;;;;;;;;;;;31.00;95.90;;;;;;7334735;19;109789;-64
2023/08/23 13:17:03;;;;;;;;;;;31.10;95.60;;;;;;7334341;19;109026;-64
2023/08/23 13:19:31;;;;;;;;;;;31.10;94.40;;;;;;7337278;19;109634;-64
2023/08/23 13:21:58;;;;;;;;;;;31.10;94.20;;;;;;7336520;19;109382;-65
2023/08/23 13:24:25;;;;;;;;;;;31.10;93.30;;;;;;7335143;19;108643;-66
2023/08/23 13:26:52;;;;;;;;;;;31.20;92.30;;;;;;7339937;19;111175;-66
2023/08/23 13:29:19;;;;;;;;;;;31.10;87.50;;;;;;7333803;19;110090;-65
2023/08/23 13:31:46;;;;;;;;;;;31.10;90.70;;;;;;7335285;19;108958;-65
2023/08/23 13:34:14;;;;;;;;;;;31.00;88.10;;;;;;7332471;19;110299;-65
2023/08/23 13:36:41;;;;;;;;;;;31.00;91.30;;;;;;7331579;19;108466;-67
2023/08/23 13:39:08;;;;;;;;;;;31.00;89.60;;;;;;7334381;19;109816;-65
2023/08/23 13:41:35;;;;;;;;;;;30.80;91.20;;;;;;7329770;19;112816;-66
2023/08/23 13:44:04;;;;;;;;;;;31.00;92.50;;;;;;7334769;19;108767;-65
2023/08/23 13:46:31;;;;;;;;;;;31.30;92.40;;;;;;7335715;19;109137;-65
2023/08/23 13:48:58;;;;;;;;;;;31.50;90.80;;;;;;7333434;19;108631;-65
2023/08/23 13:51:25;;;;;;;;;;;31.80;91.80;;;;;;7327536;19;108639;-65
2023/08/23 13:53:52;;;;;;;;;;;31.90;90.10;;;;;;7333082;19;112136;-65
2023/08/23 13:56:19;;;;;;;;;;;32.00;88.50;;;;;;7332394;19;111565;-64
2023/08/23 13:58:46;;;;;;;;;;;32.00;81.40;;;;;;7333245;19;109053;-65
2023/08/23 14:01:13;;;;;;;;;;;31.80;85.30;;;;;;7329789;19;110663;-65
2023/08/23 14:03:40;;;;;;;;;;;31.90;89.40;;;;;;7331795;19;108867;-65
2023/08/23 14:06:08;;;;;;;;;;;32.00;88.10;;;;;;7332289;19;110094;-65
2023/08/23 14:08:35;;;;;;;;;;;32.20;86.70;;;;;;7337283;19;110033;-64
2023/08/23 14:11:02;;;;;;;;;;;32.30;88.10;;;;;;7332176;19;109346;-65